sensor_id;sensor_type;location;lat;lon;timestamp;P1;durP1;ratioP1;P2;durP2;ratioP2
37477;SDS011;23334;54.316;10.182;2023-12-07T00:00:34;93.67;;;34.67;;
37477;SDS011;23334;54.316;10.182;2023-12-07T00:02:59;111.67;;;35.70;;
37477;SDS011;23334;54.316;10.182;2023-12-07T00:05:25;99.20;;;33.47;;
37477;SDS011;23334;54.316;10.182;2023-12-07T00:07:50;110.73;;;34.37;;
37477;SDS011;23334;54.316;10.182;2023-12-07T00:10:15;100.23;;;34.43;;
37477;SDS011;23334;54.316;10.182;2023-12-07T00:12:41;119.47;;;36.77;;
37477;SDS011;23334;54.316;10.182;2023-12-07T00:15:07;94.93;;;35.03;;
37477;SDS011;23334;54.316;10.182;2023-12-07T00:17:33;126.17;;;35.70;;
37477;SDS011;23334;54.316;10.182;2023-12-07T00:19:58;120.13;;;35.40;;
37477;SDS011;23334;54.316;10.182;2023-12-07T00:22:25;117.30;;;34.70;;
37477;SDS011;23334;54.316;10.182;2023-12-07T00:24:51;105.30;;;33.80;;
37477;SDS011;23334;54.316;10.182;2023-12-07T00:27:17;104.70;;;32.73;;
37477;SDS011;23334;54.316;10.182;2023-12-07T00:29:42;102.20;;;32.97;;
37477;SDS011;23334;54.316;10.182;2023-12-07T00:32:09;106.03;;;33.90;;
37477;SDS011;23334;54.316;10.182;2023-12-07T00:34:34;108.53;;;36.47;;
37477;SDS011;23334;54.316;10.182;2023-12-07T00:37:00;126.17;;;32.77;;
37477;SDS011;23334;54.316;10.182;2023-12-07T00:39:26;120.23;;;34.73;;
37477;SDS011;23334;54.316;10.182;2023-12-07T00:41:51;112.30;;;33.73;;
37477;SDS011;23334;54.316;10.182;2023-12-07T00:44:18;116.10;;;34.90;;
37477;SDS011;23334;54.316;10.182;2023-12-07T00:46:43;124.97;;;33.00;;
37477;SDS011;23334;54.316;10.182;2023-12-07T00:49:11;105.50;;;33.13;;
37477;SDS011;23334;54.316;10.182;2023-12-07T00:51:37;111.53;;;32.87;;
37477;SDS011;23334;54.316;10.182;2023-12-07T00:54:03;129.97;;;33.80;;
37477;SDS011;23334;54.316;10.182;2023-12-07T00:56:28;132.10;;;35.33;;
37477;SDS011;23334;54.316;10.182;2023-12-07T00:58:54;124.97;;;35.33;;
37477;SDS011;23334;54.316;10.182;2023-12-07T01:01:19;106.03;;;33.57;;
37477;SDS011;23334;54.316;10.182;2023-12-07T01:03:46;124.97;;;36.87;;
37477;SDS011;23334;54.316;10.182;2023-12-07T01:06:11;113.63;;;30.93;;
37477;SDS011;23334;54.316;10.182;2023-12-07T01:08:38;126.13;;;34.40;;
37477;SDS011;23334;54.316;10.182;2023-12-07T01:11:04;130.10;;;34.37;;
37477;SDS011;23334;54.316;10.182;2023-12-07T01:13:29;124.33;;;33.23;;
37477;SDS011;23334;54.316;10.182;2023-12-07T01:15:55;113.77;;;32.80;;
37477;SDS011;23334;54.316;10.182;2023-12-07T01:18:21;116.93;;;32.77;;
37477;SDS011;23334;54.316;10.182;2023-12-07T01:20:47;126.40;;;35.20;;
37477;SDS011;23334;54.316;10.182;2023-12-07T01:23:13;129.17;;;33.57;;
37477;SDS011;23334;54.316;10.182;2023-12-07T01:25:39;109.67;;;32.30;;
37477;SDS011;23334;54.316;10.182;2023-12-07T01:28:05;127.00;;;31.33;;
37477;SDS011;23334;54.316;10.182;2023-12-07T01:30:31;117.90;;;30.40;;
37477;SDS011;23334;54.316;10.182;2023-12-07T01:32:57;104.97;;;31.30;;
37477;SDS011;23334;54.316;10.182;2023-12-07T01:35:24;108.57;;;31.40;;
37477;SDS011;23334;54.316;10.182;2023-12-07T01:37:50;101.13;;;32.27;;
37477;SDS011;23334;54.316;10.182;2023-12-07T01:40:15;115.40;;;29.83;;
37477;SDS011;23334;54.316;10.182;2023-12-07T01:42:48;123.53;;;32.87;;
37477;SDS011;23334;54.316;10.182;2023-12-07T01:45:16;111.03;;;30.97;;
37477;SDS011;23334;54.316;10.182;2023-12-07T01:47:42;118.90;;;32.23;;
37477;SDS011;23334;54.316;10.182;2023-12-07T01:50:10;113.80;;;31.53;;
37477;SDS011;23334;54.316;10.182;2023-12-07T01:52:39;113.23;;;32.23;;
37477;SDS011;23334;54.316;10.182;2023-12-07T01:55:12;99.00;;;29.70;;
37477;SDS011;23334;54.316;10.182;2023-12-07T01:57:38;118.67;;;33.00;;
37477;SDS011;23334;54.316;10.182;2023-12-07T02:00:05;106.10;;;31.03;;
37477;SDS011;23334;54.316;10.182;2023-12-07T02:02:31;107.20;;;32.50;;
37477;SDS011;23334;54.316;10.182;2023-12-07T02:04:57;119.67;;;32.70;;
37477;SDS011;23334;54.316;10.182;2023-12-07T02:07:23;119.40;;;30.93;;
37477;SDS011;23334;54.316;10.182;2023-12-07T02:09:48;123.90;;;31.87;;
37477;SDS011;23334;54.316;10.182;2023-12-07T02:12:14;112.43;;;33.27;;
37477;SDS011;23334;54.316;10.182;2023-12-07T02:14:40;108.03;;;32.10;;
37477;SDS011;23334;54.316;10.182;2023-12-07T02:17:17;105.97;;;30.90;;
37477;SDS011;23334;54.316;10.182;2023-12-07T02:19:51;114.53;;;30.93;;
37477;SDS011;23334;54.316;10.182;2023-12-07T02:22:30;106.37;;;30.20;;
37477;SDS011;23334;54.316;10.182;2023-12-07T02:25:04;122.03;;;31.30;;
37477;SDS011;23334;54.316;10.182;2023-12-07T02:27:34;107.17;;;31.97;;
37477;SDS011;23334;54.316;10.182;2023-12-07T02:30:00;122.67;;;32.50;;
37477;SDS011;23334;54.316;10.182;2023-12-07T02:32:28;101.83;;;30.13;;
37477;SDS011;23334;54.316;10.182;2023-12-07T02:34:53;108.90;;;29.30;;
37477;SDS011;23334;54.316;10.182;2023-12-07T02:37:19;102.93;;;27.03;;
37477;SDS011;23334;54.316;10.182;2023-12-07T02:39:48;108.77;;;29.93;;
37477;SDS011;23334;54.316;10.182;2023-12-07T02:42:16;107.43;;;29.30;;
37477;SDS011;23334;54.316;10.182;2023-12-07T02:44:42;106.63;;;28.97;;
37477;SDS011;23334;54.316;10.182;2023-12-07T02:47:08;111.67;;;29.40;;
37477;SDS011;23334;54.316;10.182;2023-12-07T02:49:33;109.77;;;29.10;;
37477;SDS011;23334;54.316;10.182;2023-12-07T02:51:59;102.83;;;29.40;;
37477;SDS011;23334;54.316;10.182;2023-12-07T02:54:25;116.03;;;29.70;;
37477;SDS011;23334;54.316;10.182;2023-12-07T02:56:51;100.60;;;29.10;;
37477;SDS011;23334;54.316;10.182;2023-12-07T02:59:16;133.57;;;30.67;;
37477;SDS011;23334;54.316;10.182;2023-12-07T03:01:42;102.00;;;27.13;;
37477;SDS011;23334;54.316;10.182;2023-12-07T03:04:07;113.83;;;28.83;;
37477;SDS011;23334;54.316;10.182;2023-12-07T03:06:34;102.67;;;28.33;;
37477;SDS011;23334;54.316;10.182;2023-12-07T03:08:59;102.80;;;29.63;;
37477;SDS011;23334;54.316;10.182;2023-12-07T03:11:25;97.63;;;27.90;;
37477;SDS011;23334;54.316;10.182;2023-12-07T03:13:50;101.47;;;28.23;;
37477;SDS011;23334;54.316;10.182;2023-12-07T03:16:15;101.80;;;28.87;;
37477;SDS011;23334;54.316;10.182;2023-12-07T03:18:41;144.97;;;29.00;;
37477;SDS011;23334;54.316;10.182;2023-12-07T03:21:06;121.17;;;30.63;;
37477;SDS011;23334;54.316;10.182;2023-12-07T03:23:32;112.10;;;29.40;;
37477;SDS011;23334;54.316;10.182;2023-12-07T03:25:57;106.80;;;29.03;;
37477;SDS011;23334;54.316;10.182;2023-12-07T03:28:23;105.03;;;29.33;;
37477;SDS011;23334;54.316;10.182;2023-12-07T03:30:48;127.87;;;29.87;;
37477;SDS011;23334;54.316;10.182;2023-12-07T03:33:14;118.97;;;28.63;;
37477;SDS011;23334;54.316;10.182;2023-12-07T03:35:40;113.53;;;27.53;;
37477;SDS011;23334;54.316;10.182;2023-12-07T03:38:05;109.87;;;30.37;;
37477;SDS011;23334;54.316;10.182;2023-12-07T03:40:31;128.13;;;31.07;;
37477;SDS011;23334;54.316;10.182;2023-12-07T03:42:58;114.80;;;31.17;;
37477;SDS011;23334;54.316;10.182;2023-12-07T03:45:24;102.97;;;28.53;;
37477;SDS011;23334;54.316;10.182;2023-12-07T03:47:49;126.50;;;30.50;;
37477;SDS011;23334;54.316;10.182;2023-12-07T03:50:15;108.03;;;31.90;;
37477;SDS011;23334;54.316;10.182;2023-12-07T03:52:40;115.80;;;31.03;;
37477;SDS011;23334;54.316;10.182;2023-12-07T03:55:06;84.77;;;27.87;;
37477;SDS011;23334;54.316;10.182;2023-12-07T03:57:32;102.10;;;31.30;;
37477;SDS011;23334;54.316;10.182;2023-12-07T03:59:58;92.23;;;28.70;;
37477;SDS011;23334;54.316;10.182;2023-12-07T04:02:24;108.60;;;29.53;;
37477;SDS011;23334;54.316;10.182;2023-12-07T04:04:51;118.70;;;31.50;;
37477;SDS011;23334;54.316;10.182;2023-12-07T04:07:18;121.70;;;30.63;;
37477;SDS011;23334;54.316;10.182;2023-12-07T04:09:43;119.80;;;29.43;;
37477;SDS011;23334;54.316;10.182;2023-12-07T04:12:10;118.07;;;32.10;;
37477;SDS011;23334;54.316;10.182;2023-12-07T04:14:35;103.80;;;30.40;;
37477;SDS011;23334;54.316;10.182;2023-12-07T04:17:00;129.67;;;31.33;;
37477;SDS011;23334;54.316;10.182;2023-12-07T04:19:26;123.00;;;31.43;;
37477;SDS011;23334;54.316;10.182;2023-12-07T04:21:52;109.00;;;30.60;;
37477;SDS011;23334;54.316;10.182;2023-12-07T04:24:18;106.33;;;30.60;;
37477;SDS011;23334;54.316;10.182;2023-12-07T04:26:44;105.50;;;30.67;;
37477;SDS011;23334;54.316;10.182;2023-12-07T04:29:09;110.40;;;30.93;;
37477;SDS011;23334;54.316;10.182;2023-12-07T04:31:35;124.37;;;32.50;;
37477;SDS011;23334;54.316;10.182;2023-12-07T04:34:01;107.87;;;30.40;;
37477;SDS011;23334;54.316;10.182;2023-12-07T04:36:26;102.80;;;30.10;;
37477;SDS011;23334;54.316;10.182;2023-12-07T04:38:52;106.43;;;30.53;;
37477;SDS011;23334;54.316;10.182;2023-12-07T04:41:17;115.60;;;32.00;;
37477;SDS011;23334;54.316;10.182;2023-12-07T04:43:42;99.97;;;30.50;;
37477;SDS011;23334;54.316;10.182;2023-12-07T04:46:08;103.10;;;29.40;;
37477;SDS011;23334;54.316;10.182;2023-12-07T04:48:33;125.00;;;31.10;;
37477;SDS011;23334;54.316;10.182;2023-12-07T04:50:59;120.00;;;31.80;;
37477;SDS011;23334;54.316;10.182;2023-12-07T04:53:25;120.67;;;30.13;;
37477;SDS011;23334;54.316;10.182;2023-12-07T04:55:51;109.40;;;31.17;;
37477;SDS011;23334;54.316;10.182;2023-12-07T04:58:16;95.30;;;30.87;;
37477;SDS011;23334;54.316;10.182;2023-12-07T05:00:42;110.97;;;31.33;;
37477;SDS011;23334;54.316;10.182;2023-12-07T05:03:07;102.10;;;29.27;;
37477;SDS011;23334;54.316;10.182;2023-12-07T05:05:33;88.43;;;31.20;;
37477;SDS011;23334;54.316;10.182;2023-12-07T05:07:58;122.43;;;31.30;;
37477;SDS011;23334;54.316;10.182;2023-12-07T05:10:24;115.33;;;33.30;;
37477;SDS011;23334;54.316;10.182;2023-12-07T05:12:49;111.27;;;31.27;;
37477;SDS011;23334;54.316;10.182;2023-12-07T05:15:16;111.43;;;32.10;;
37477;SDS011;23334;54.316;10.182;2023-12-07T05:17:41;105.40;;;31.27;;
37477;SDS011;23334;54.316;10.182;2023-12-07T05:20:07;108.43;;;31.63;;
37477;SDS011;23334;54.316;10.182;2023-12-07T05:22:34;114.47;;;30.27;;
37477;SDS011;23334;54.316;10.182;2023-12-07T05:24:59;91.67;;;29.63;;
37477;SDS011;23334;54.316;10.182;2023-12-07T05:27:25;91.70;;;30.63;;
37477;SDS011;23334;54.316;10.182;2023-12-07T05:29:50;116.73;;;29.10;;
37477;SDS011;23334;54.316;10.182;2023-12-07T05:32:16;109.60;;;32.87;;
37477;SDS011;23334;54.316;10.182;2023-12-07T05:34:42;100.90;;;28.90;;
37477;SDS011;23334;54.316;10.182;2023-12-07T05:37:08;110.73;;;31.97;;
37477;SDS011;23334;54.316;10.182;2023-12-07T05:39:34;97.83;;;30.03;;
37477;SDS011;23334;54.316;10.182;2023-12-07T05:41:59;98.97;;;30.93;;
37477;SDS011;23334;54.316;10.182;2023-12-07T05:44:24;109.60;;;33.07;;
37477;SDS011;23334;54.316;10.182;2023-12-07T05:46:50;104.80;;;30.03;;
37477;SDS011;23334;54.316;10.182;2023-12-07T05:49:16;117.70;;;31.80;;
37477;SDS011;23334;54.316;10.182;2023-12-07T05:51:41;92.20;;;29.60;;
37477;SDS011;23334;54.316;10.182;2023-12-07T05:54:07;104.03;;;30.27;;
37477;SDS011;23334;54.316;10.182;2023-12-07T05:56:32;107.40;;;29.93;;
37477;SDS011;23334;54.316;10.182;2023-12-07T05:58:58;105.13;;;31.30;;
37477;SDS011;23334;54.316;10.182;2023-12-07T06:01:24;120.47;;;30.63;;
37477;SDS011;23334;54.316;10.182;2023-12-07T06:03:49;121.60;;;32.60;;
37477;SDS011;23334;54.316;10.182;2023-12-07T06:06:15;103.63;;;31.93;;
37477;SDS011;23334;54.316;10.182;2023-12-07T06:08:41;125.23;;;30.93;;
37477;SDS011;23334;54.316;10.182;2023-12-07T06:11:07;113.77;;;31.23;;
37477;SDS011;23334;54.316;10.182;2023-12-07T06:13:32;102.53;;;31.73;;
37477;SDS011;23334;54.316;10.182;2023-12-07T06:15:58;97.43;;;29.63;;
37477;SDS011;23334;54.316;10.182;2023-12-07T06:18:27;116.70;;;31.83;;
37477;SDS011;23334;54.316;10.182;2023-12-07T06:20:53;113.73;;;31.90;;
37477;SDS011;23334;54.316;10.182;2023-12-07T06:23:19;100.57;;;29.70;;
37477;SDS011;23334;54.316;10.182;2023-12-07T06:25:46;103.13;;;29.30;;
37477;SDS011;23334;54.316;10.182;2023-12-07T06:28:12;112.77;;;30.37;;
37477;SDS011;23334;54.316;10.182;2023-12-07T06:30:39;97.43;;;30.40;;
37477;SDS011;23334;54.316;10.182;2023-12-07T06:33:05;111.03;;;30.40;;
37477;SDS011;23334;54.316;10.182;2023-12-07T06:35:31;94.17;;;29.00;;
37477;SDS011;23334;54.316;10.182;2023-12-07T06:37:57;99.30;;;30.47;;
37477;SDS011;23334;54.316;10.182;2023-12-07T06:40:22;105.43;;;29.70;;
37477;SDS011;23334;54.316;10.182;2023-12-07T06:42:48;114.80;;;30.93;;
37477;SDS011;23334;54.316;10.182;2023-12-07T06:45:13;104.20;;;29.20;;
37477;SDS011;23334;54.316;10.182;2023-12-07T06:47:39;107.10;;;29.03;;
37477;SDS011;23334;54.316;10.182;2023-12-07T06:50:07;98.77;;;29.73;;
37477;SDS011;23334;54.316;10.182;2023-12-07T06:52:34;99.90;;;27.90;;
37477;SDS011;23334;54.316;10.182;2023-12-07T06:55:00;108.57;;;29.87;;
37477;SDS011;23334;54.316;10.182;2023-12-07T06:57:26;108.07;;;31.43;;
37477;SDS011;23334;54.316;10.182;2023-12-07T06:59:54;105.20;;;28.70;;
37477;SDS011;23334;54.316;10.182;2023-12-07T07:02:20;107.90;;;29.97;;
37477;SDS011;23334;54.316;10.182;2023-12-07T07:04:48;115.97;;;29.70;;
37477;SDS011;23334;54.316;10.182;2023-12-07T07:07:14;98.50;;;28.87;;
37477;SDS011;23334;54.316;10.182;2023-12-07T07:09:40;87.87;;;28.23;;
37477;SDS011;23334;54.316;10.182;2023-12-07T07:12:07;94.63;;;29.00;;
37477;SDS011;23334;54.316;10.182;2023-12-07T07:14:34;104.10;;;27.67;;
37477;SDS011;23334;54.316;10.182;2023-12-07T07:17:00;89.20;;;28.33;;
37477;SDS011;23334;54.316;10.182;2023-12-07T07:19:27;112.63;;;29.60;;
37477;SDS011;23334;54.316;10.182;2023-12-07T07:21:54;108.73;;;30.10;;
37477;SDS011;23334;54.316;10.182;2023-12-07T07:24:21;125.80;;;30.17;;
37477;SDS011;23334;54.316;10.182;2023-12-07T07:26:46;96.90;;;26.97;;
37477;SDS011;23334;54.316;10.182;2023-12-07T07:29:11;85.50;;;27.73;;
37477;SDS011;23334;54.316;10.182;2023-12-07T07:31:37;93.43;;;28.70;;
37477;SDS011;23334;54.316;10.182;2023-12-07T07:34:03;97.23;;;27.60;;
37477;SDS011;23334;54.316;10.182;2023-12-07T07:36:29;96.60;;;25.63;;
37477;SDS011;23334;54.316;10.182;2023-12-07T07:38:55;76.20;;;26.17;;
37477;SDS011;23334;54.316;10.182;2023-12-07T07:41:20;101.70;;;25.80;;
37477;SDS011;23334;54.316;10.182;2023-12-07T07:43:46;94.07;;;27.70;;
37477;SDS011;23334;54.316;10.182;2023-12-07T07:46:11;99.43;;;27.23;;
37477;SDS011;23334;54.316;10.182;2023-12-07T07:48:37;97.27;;;26.77;;
37477;SDS011;23334;54.316;10.182;2023-12-07T07:51:04;87.40;;;27.00;;
37477;SDS011;23334;54.316;10.182;2023-12-07T07:53:30;81.00;;;24.73;;
37477;SDS011;23334;54.316;10.182;2023-12-07T07:55:56;90.93;;;27.40;;
37477;SDS011;23334;54.316;10.182;2023-12-07T07:58:22;86.10;;;26.20;;
37477;SDS011;23334;54.316;10.182;2023-12-07T08:00:47;85.10;;;25.00;;
37477;SDS011;23334;54.316;10.182;2023-12-07T08:03:13;85.33;;;25.00;;
37477;SDS011;23334;54.316;10.182;2023-12-07T08:05:38;87.70;;;24.93;;
37477;SDS011;23334;54.316;10.182;2023-12-07T08:08:04;92.83;;;24.67;;
37477;SDS011;23334;54.316;10.182;2023-12-07T08:10:29;90.93;;;26.10;;
37477;SDS011;23334;54.316;10.182;2023-12-07T08:12:54;88.33;;;27.10;;
37477;SDS011;23334;54.316;10.182;2023-12-07T08:15:20;71.43;;;26.10;;
37477;SDS011;23334;54.316;10.182;2023-12-07T08:17:47;99.00;;;26.53;;
37477;SDS011;23334;54.316;10.182;2023-12-07T08:20:13;86.90;;;26.13;;
37477;SDS011;23334;54.316;10.182;2023-12-07T08:22:39;94.90;;;25.60;;
37477;SDS011;23334;54.316;10.182;2023-12-07T08:25:09;96.97;;;25.47;;
37477;SDS011;23334;54.316;10.182;2023-12-07T08:27:39;88.10;;;26.23;;
37477;SDS011;23334;54.316;10.182;2023-12-07T08:30:05;106.13;;;26.30;;
37477;SDS011;23334;54.316;10.182;2023-12-07T08:32:31;87.83;;;25.57;;
37477;SDS011;23334;54.316;10.182;2023-12-07T08:34:56;88.90;;;25.50;;
37477;SDS011;23334;54.316;10.182;2023-12-07T08:37:22;92.80;;;25.20;;
37477;SDS011;23334;54.316;10.182;2023-12-07T08:39:47;93.07;;;25.77;;
37477;SDS011;23334;54.316;10.182;2023-12-07T08:42:13;92.57;;;25.47;;
37477;SDS011;23334;54.316;10.182;2023-12-07T08:44:42;84.10;;;25.57;;
37477;SDS011;23334;54.316;10.182;2023-12-07T08:47:08;81.23;;;25.70;;
37477;SDS011;23334;54.316;10.182;2023-12-07T08:49:33;73.23;;;25.10;;
37477;SDS011;23334;54.316;10.182;2023-12-07T08:51:59;85.00;;;25.70;;
37477;SDS011;23334;54.316;10.182;2023-12-07T08:54:24;94.57;;;24.43;;
37477;SDS011;23334;54.316;10.182;2023-12-07T08:56:50;86.50;;;25.60;;
37477;SDS011;23334;54.316;10.182;2023-12-07T08:59:16;92.20;;;26.80;;
37477;SDS011;23334;54.316;10.182;2023-12-07T09:01:42;89.97;;;24.77;;
37477;SDS011;23334;54.316;10.182;2023-12-07T09:04:07;84.57;;;23.83;;
37477;SDS011;23334;54.316;10.182;2023-12-07T09:06:33;90.43;;;24.70;;
37477;SDS011;23334;54.316;10.182;2023-12-07T09:08:58;88.07;;;25.00;;
37477;SDS011;23334;54.316;10.182;2023-12-07T09:11:24;84.20;;;24.87;;
37477;SDS011;23334;54.316;10.182;2023-12-07T09:13:49;84.80;;;25.00;;
37477;SDS011;23334;54.316;10.182;2023-12-07T09:16:15;70.93;;;22.93;;
37477;SDS011;23334;54.316;10.182;2023-12-07T09:18:41;86.90;;;23.63;;
37477;SDS011;23334;54.316;10.182;2023-12-07T09:21:12;89.00;;;24.23;;
37477;SDS011;23334;54.316;10.182;2023-12-07T09:23:38;88.43;;;24.10;;
37477;SDS011;23334;54.316;10.182;2023-12-07T09:26:04;80.77;;;23.77;;
37477;SDS011;23334;54.316;10.182;2023-12-07T09:28:31;92.30;;;25.27;;
37477;SDS011;23334;54.316;10.182;2023-12-07T09:30:58;81.73;;;24.40;;
37477;SDS011;23334;54.316;10.182;2023-12-07T09:33:24;79.37;;;24.30;;
37477;SDS011;23334;54.316;10.182;2023-12-07T09:35:49;83.90;;;24.53;;
37477;SDS011;23334;54.316;10.182;2023-12-07T09:38:14;61.63;;;22.37;;
37477;SDS011;23334;54.316;10.182;2023-12-07T09:40:40;78.00;;;24.40;;
37477;SDS011;23334;54.316;10.182;2023-12-07T09:43:07;85.20;;;25.80;;
37477;SDS011;23334;54.316;10.182;2023-12-07T09:45:33;83.07;;;25.67;;
37477;SDS011;23334;54.316;10.182;2023-12-07T09:47:59;85.17;;;25.80;;
37477;SDS011;23334;54.316;10.182;2023-12-07T09:50:25;83.00;;;24.63;;
37477;SDS011;23334;54.316;10.182;2023-12-07T09:52:54;85.53;;;24.90;;
37477;SDS011;23334;54.316;10.182;2023-12-07T09:55:21;78.03;;;24.87;;
37477;SDS011;23334;54.316;10.182;2023-12-07T09:57:48;87.23;;;24.23;;
37477;SDS011;23334;54.316;10.182;2023-12-07T10:00:14;72.47;;;25.20;;
37477;SDS011;23334;54.316;10.182;2023-12-07T10:02:41;76.37;;;25.63;;
37477;SDS011;23334;54.316;10.182;2023-12-07T10:05:11;80.60;;;23.97;;
37477;SDS011;23334;54.316;10.182;2023-12-07T10:07:44;75.60;;;23.77;;
37477;SDS011;23334;54.316;10.182;2023-12-07T10:10:15;75.67;;;23.90;;
37477;SDS011;23334;54.316;10.182;2023-12-07T10:12:46;68.03;;;24.00;;
37477;SDS011;23334;54.316;10.182;2023-12-07T10:15:19;76.43;;;22.90;;
37477;SDS011;23334;54.316;10.182;2023-12-07T10:17:52;73.27;;;24.23;;
37477;SDS011;23334;54.316;10.182;2023-12-07T10:20:20;59.83;;;23.10;;
37477;SDS011;23334;54.316;10.182;2023-12-07T10:23:00;72.80;;;25.07;;
37477;SDS011;23334;54.316;10.182;2023-12-07T10:25:27;75.80;;;25.20;;
37477;SDS011;23334;54.316;10.182;2023-12-07T10:27:54;77.40;;;24.17;;
37477;SDS011;23334;54.316;10.182;2023-12-07T10:30:20;79.03;;;24.93;;
37477;SDS011;23334;54.316;10.182;2023-12-07T10:32:50;80.00;;;24.17;;
37477;SDS011;23334;54.316;10.182;2023-12-07T10:35:18;69.00;;;22.87;;
37477;SDS011;23334;54.316;10.182;2023-12-07T10:37:44;76.97;;;23.70;;
37477;SDS011;23334;54.316;10.182;2023-12-07T10:40:10;64.27;;;22.00;;
37477;SDS011;23334;54.316;10.182;2023-12-07T10:42:35;79.47;;;24.07;;
37477;SDS011;23334;54.316;10.182;2023-12-07T10:45:03;77.60;;;23.23;;
37477;SDS011;23334;54.316;10.182;2023-12-07T10:47:37;76.20;;;23.17;;
37477;SDS011;23334;54.316;10.182;2023-12-07T10:50:07;74.93;;;24.00;;
37477;SDS011;23334;54.316;10.182;2023-12-07T10:52:36;67.03;;;23.57;;
37477;SDS011;23334;54.316;10.182;2023-12-07T10:55:07;78.67;;;23.90;;
37477;SDS011;23334;54.316;10.182;2023-12-07T10:57:40;77.40;;;23.97;;
37477;SDS011;23334;54.316;10.182;2023-12-07T11:00:07;67.30;;;22.77;;
37477;SDS011;23334;54.316;10.182;2023-12-07T11:02:34;80.23;;;22.73;;
37477;SDS011;23334;54.316;10.182;2023-12-07T11:05:02;74.37;;;22.83;;
37477;SDS011;23334;54.316;10.182;2023-12-07T11:07:30;74.97;;;22.73;;
37477;SDS011;23334;54.316;10.182;2023-12-07T11:10:05;75.53;;;23.30;;
37477;SDS011;23334;54.316;10.182;2023-12-07T11:12:40;64.33;;;23.33;;
37477;SDS011;23334;54.316;10.182;2023-12-07T11:15:18;81.10;;;25.67;;
37477;SDS011;23334;54.316;10.182;2023-12-07T11:17:49;84.63;;;22.77;;
37477;SDS011;23334;54.316;10.182;2023-12-07T11:20:21;70.47;;;24.10;;
37477;SDS011;23334;54.316;10.182;2023-12-07T11:23:06;64.57;;;21.90;;
37477;SDS011;23334;54.316;10.182;2023-12-07T11:25:32;91.47;;;25.77;;
37477;SDS011;23334;54.316;10.182;2023-12-07T11:28:01;72.57;;;23.20;;
37477;SDS011;23334;54.316;10.182;2023-12-07T11:30:30;65.57;;;22.87;;
37477;SDS011;23334;54.316;10.182;2023-12-07T11:32:56;66.43;;;20.97;;
37477;SDS011;23334;54.316;10.182;2023-12-07T11:35:22;79.47;;;24.10;;
37477;SDS011;23334;54.316;10.182;2023-12-07T11:40:37;70.77;;;23.40;;
37477;SDS011;23334;54.316;10.182;2023-12-07T11:43:05;71.07;;;21.97;;
37477;SDS011;23334;54.316;10.182;2023-12-07T11:45:38;64.80;;;20.90;;
37477;SDS011;23334;54.316;10.182;2023-12-07T11:48:14;74.60;;;23.77;;
37477;SDS011;23334;54.316;10.182;2023-12-07T11:50:55;66.87;;;20.60;;
37477;SDS011;23334;54.316;10.182;2023-12-07T11:53:25;77.87;;;23.03;;
37477;SDS011;23334;54.316;10.182;2023-12-07T11:55:55;63.17;;;20.33;;
37477;SDS011;23334;54.316;10.182;2023-12-07T11:58:25;70.53;;;20.43;;
37477;SDS011;23334;54.316;10.182;2023-12-07T12:00:51;75.40;;;22.10;;
37477;SDS011;23334;54.316;10.182;2023-12-07T12:03:18;62.97;;;22.50;;
37477;SDS011;23334;54.316;10.182;2023-12-07T12:05:45;66.37;;;21.20;;
37477;SDS011;23334;54.316;10.182;2023-12-07T12:08:10;60.43;;;20.70;;
37477;SDS011;23334;54.316;10.182;2023-12-07T12:10:36;66.37;;;21.63;;
37477;SDS011;23334;54.316;10.182;2023-12-07T12:13:03;70.40;;;21.90;;
37477;SDS011;23334;54.316;10.182;2023-12-07T12:15:29;60.70;;;21.43;;
37477;SDS011;23334;54.316;10.182;2023-12-07T12:17:56;57.03;;;21.20;;
37477;SDS011;23334;54.316;10.182;2023-12-07T12:20:22;52.77;;;19.00;;
37477;SDS011;23334;54.316;10.182;2023-12-07T12:22:49;54.90;;;20.17;;
37477;SDS011;23334;54.316;10.182;2023-12-07T12:25:15;56.40;;;21.03;;
37477;SDS011;23334;54.316;10.182;2023-12-07T12:27:41;57.97;;;21.47;;
37477;SDS011;23334;54.316;10.182;2023-12-07T12:30:09;53.83;;;21.23;;
37477;SDS011;23334;54.316;10.182;2023-12-07T12:32:45;64.83;;;21.63;;
37477;SDS011;23334;54.316;10.182;2023-12-07T12:35:11;60.83;;;21.23;;
37477;SDS011;23334;54.316;10.182;2023-12-07T12:37:39;59.57;;;20.90;;
37477;SDS011;23334;54.316;10.182;2023-12-07T12:40:09;70.60;;;22.53;;
37477;SDS011;23334;54.316;10.182;2023-12-07T12:42:36;68.60;;;22.70;;
37477;SDS011;23334;54.316;10.182;2023-12-07T12:45:03;56.43;;;20.20;;
37477;SDS011;23334;54.316;10.182;2023-12-07T12:47:30;67.90;;;22.80;;
37477;SDS011;23334;54.316;10.182;2023-12-07T12:49:56;84.87;;;25.20;;
37477;SDS011;23334;54.316;10.182;2023-12-07T12:52:23;66.83;;;22.67;;
37477;SDS011;23334;54.316;10.182;2023-12-07T12:54:50;58.30;;;21.90;;
37477;SDS011;23334;54.316;10.182;2023-12-07T12:57:16;72.83;;;23.80;;
37477;SDS011;23334;54.316;10.182;2023-12-07T12:59:44;65.13;;;21.33;;
37477;SDS011;23334;54.316;10.182;2023-12-07T13:02:10;66.93;;;21.63;;
37477;SDS011;23334;54.316;10.182;2023-12-07T13:04:36;66.37;;;23.20;;
37477;SDS011;23334;54.316;10.182;2023-12-07T13:07:02;57.73;;;21.07;;
37477;SDS011;23334;54.316;10.182;2023-12-07T13:09:27;58.47;;;20.83;;
37477;SDS011;23334;54.316;10.182;2023-12-07T13:11:54;46.63;;;18.50;;
37477;SDS011;23334;54.316;10.182;2023-12-07T13:14:21;62.73;;;19.77;;
37477;SDS011;23334;54.316;10.182;2023-12-07T13:16:47;59.20;;;20.07;;
37477;SDS011;23334;54.316;10.182;2023-12-07T13:19:12;54.57;;;21.63;;
37477;SDS011;23334;54.316;10.182;2023-12-07T13:21:38;58.40;;;21.37;;
37477;SDS011;23334;54.316;10.182;2023-12-07T13:24:03;54.40;;;20.73;;
37477;SDS011;23334;54.316;10.182;2023-12-07T13:26:30;59.37;;;21.40;;
37477;SDS011;23334;54.316;10.182;2023-12-07T13:28:56;53.47;;;19.10;;
37477;SDS011;23334;54.316;10.182;2023-12-07T13:31:21;60.07;;;21.30;;
37477;SDS011;23334;54.316;10.182;2023-12-07T13:33:50;59.60;;;21.63;;
37477;SDS011;23334;54.316;10.182;2023-12-07T13:36:15;49.10;;;18.47;;
37477;SDS011;23334;54.316;10.182;2023-12-07T13:38:43;56.80;;;21.17;;
37477;SDS011;23334;54.316;10.182;2023-12-07T13:41:11;59.17;;;20.83;;
37477;SDS011;23334;54.316;10.182;2023-12-07T13:43:36;53.80;;;20.20;;
37477;SDS011;23334;54.316;10.182;2023-12-07T13:46:02;55.10;;;20.30;;
37477;SDS011;23334;54.316;10.182;2023-12-07T13:48:27;61.33;;;22.20;;
37477;SDS011;23334;54.316;10.182;2023-12-07T13:50:53;63.70;;;21.53;;
37477;SDS011;23334;54.316;10.182;2023-12-07T13:53:19;61.93;;;21.20;;
37477;SDS011;23334;54.316;10.182;2023-12-07T13:55:45;62.73;;;22.23;;
37477;SDS011;23334;54.316;10.182;2023-12-07T13:58:11;61.80;;;22.03;;
37477;SDS011;23334;54.316;10.182;2023-12-07T14:00:37;51.87;;;19.47;;
37477;SDS011;23334;54.316;10.182;2023-12-07T14:03:03;58.60;;;21.00;;